Time;durP1;ratioP1;P1;durP2;ratioP2;P2;SDS_P1;SDS_P2;PMS_P1;PMS_P2;Temp;Humidity;BMP_temperature;BMP_pressure;BME280_temperature;BME280_humidity;BME280_pressure;Samples;Min_cycle;Max_cycle;Signal;HPM_P1;HPM_P2
2023/02/19 00:01:08;;;;;;;38.33;26.13;;;;;;;;;;4906563;29;20040;-88
2023/02/19 00:06:58;;;;;;;35.47;24.42;;;;;;;;;;4923170;29;20035;-87
2023/02/19 00:09:25;;;;;;;37.90;24.83;;;;;;;;;;4905742;29;20040;-88
2023/02/19 00:11:51;;;;;;;37.55;24.95;;;;;;;;;;4922927;29;20399;-89
2023/02/19 00:14:19;;;;;;;38.58;24.23;;;;;;;;;;4923158;29;20028;-88
2023/02/19 00:16:45;;;;;;;39.03;25.52;;;;;;;;;;4906341;29;20025;-88
2023/02/19 00:19:12;;;;;;;38.17;24.77;;;;;;;;;;4922801;29;20075;-88
2023/02/19 00:21:38;;;;;;;37.72;25.90;;;;;;;;;;4905668;29;20036;-89
2023/02/19 00:24:06;;;;;;;40.85;24.05;;;;;;;;;;4922921;29;20112;-89
2023/02/19 00:26:32;;;;;;;36.50;26.80;;;;;;;;;;4905157;29;20041;-89
2023/02/19 00:28:59;;;;;;;37.90;25.65;;;;;;;;;;4922836;29;20079;-89
2023/02/19 00:31:27;;;;;;;37.40;24.77;;;;;;;;;;4922694;29;20398;-88
2023/02/19 00:36:57;;;;;;;37.30;24.83;;;;;;;;;;4903762;29;20028;-88
2023/02/19 00:39:23;;;;;;;37.05;24.60;;;;;;;;;;4886772;29;20079;-88
2023/02/19 00:41:49;;;;;;;40.35;26.73;;;;;;;;;;4886707;29;20060;-89
2023/02/19 00:44:15;;;;;;;37.15;26.52;;;;;;;;;;4906023;29;20032;-89
2023/02/19 00:46:42;;;;;;;40.70;27.45;;;;;;;;;;4922572;29;20087;-89
2023/02/19 00:49:08;;;;;;;44.97;28.30;;;;;;;;;;4922199;29;20035;-88
2023/02/19 00:51:36;;;;;;;45.28;27.50;;;;;;;;;;4922289;29;20137;-88
2023/02/19 00:54:02;;;;;;;41.97;26.60;;;;;;;;;;4905414;29;20020;-89
2023/02/19 00:56:29;;;;;;;40.78;26.05;;;;;;;;;;4918675;29;20396;-89
2023/02/19 00:58:55;;;;;;;39.85;26.05;;;;;;;;;;4903221;29;20157;-90
2023/02/19 01:01:21;;;;;;;44.10;26.85;;;;;;;;;;4903126;29;20096;-90
2023/02/19 01:03:47;;;;;;;41.92;27.35;;;;;;;;;;4903383;29;20100;-90
2023/02/19 01:06:14;;;;;;;43.65;27.52;;;;;;;;;;4903345;29;20327;-89
2023/02/19 01:08:41;;;;;;;43.95;26.73;;;;;;;;;;4902917;29;20468;-89
2023/02/19 01:11:07;;;;;;;41.35;26.85;;;;;;;;;;4903237;29;20032;-89
2023/02/19 01:13:33;;;;;;;42.97;27.35;;;;;;;;;;4902129;29;20048;-89
2023/02/19 01:16:03;;;;;;;41.75;26.75;;;;;;;;;;4903312;29;20447;-89
2023/02/19 01:18:30;;;;;;;39.28;25.75;;;;;;;;;;4902893;29;20029;-90
2023/02/19 01:20:56;;;;;;;35.97;24.65;;;;;;;;;;4903186;29;20033;-90
2023/02/19 01:23:22;;;;;;;39.20;25.60;;;;;;;;;;4902848;29;20032;-90
2023/02/19 01:25:48;;;;;;;37.85;26.00;;;;;;;;;;4902006;29;20029;-90
2023/02/19 01:28:14;;;;;;;36.25;24.17;;;;;;;;;;4903054;29;20039;-90
2023/02/19 01:30:41;;;;;;;37.10;24.70;;;;;;;;;;4902380;29;20040;-88
2023/02/19 01:33:07;;;;;;;34.47;24.25;;;;;;;;;;4902015;29;20029;-89
2023/02/19 01:36:23;;;;;;;34.88;24.27;;;;;;;;;;4902614;29;20036;-88
2023/02/19 01:38:49;;;;;;;36.90;23.73;;;;;;;;;;4905528;29;20043;-88
2023/02/19 01:41:17;;;;;;;39.97;24.35;;;;;;;;;;4921344;29;20063;-89
2023/02/19 01:44:01;;;;;;;39.70;25.35;;;;;;;;;;4921630;29;20049;-89
2023/02/19 01:46:29;;;;;;;35.17;24.50;;;;;;;;;;4904456;29;20032;-88
2023/02/19 01:52:00;;;;;;;37.20;24.85;;;;;;;;;;4921651;29;20032;-88
2023/02/19 01:54:28;;;;;;;41.60;25.58;;;;;;;;;;4921405;29;20024;-87
2023/02/19 01:56:54;;;;;;;35.47;24.25;;;;;;;;;;4904569;29;20035;-88
2023/02/19 01:59:21;;;;;;;35.25;24.63;;;;;;;;;;4904508;29;20028;-89
2023/02/19 02:01:47;;;;;;;36.70;23.40;;;;;;;;;;4921338;29;20039;-89
2023/02/19 02:11:00;;;;;;;37.03;23.33;;;;;;;;;;4921368;29;20043;-89
2023/02/19 02:13:26;;;;;;;36.92;24.58;;;;;;;;;;4904416;29;20032;-89
2023/02/19 02:16:02;;;;;;;35.95;23.58;;;;;;;;;;4904754;29;20028;-89
2023/02/19 02:18:51;;;;;;;31.90;23.15;;;;;;;;;;4920835;29;20028;-89
2023/02/19 02:21:36;;;;;;;36.03;23.95;;;;;;;;;;4904639;29;20035;-89
2023/02/19 02:24:05;;;;;;;33.70;23.50;;;;;;;;;;4921324;29;20103;-88
2023/02/19 02:26:54;;;;;;;35.70;23.27;;;;;;;;;;4920927;29;20063;-89
2023/02/19 02:29:25;;;;;;;34.95;22.17;;;;;;;;;;4863463;29;20054;-88
2023/02/19 02:32:05;;;;;;;33.67;22.67;;;;;;;;;;4863009;29;20317;-88
2023/02/19 02:41:19;;;;;;;30.60;21.98;;;;;;;;;;4860618;29;20121;-89
2023/02/19 02:43:45;;;;;;;32.60;22.08;;;;;;;;;;4863335;29;20084;-88
2023/02/19 02:46:13;;;;;;;33.83;23.15;;;;;;;;;;4863283;29;20124;-88
2023/02/19 02:48:52;;;;;;;34.70;22.73;;;;;;;;;;4863358;29;20029;-89
2023/02/19 02:51:18;;;;;;;37.10;23.40;;;;;;;;;;4866552;29;20033;-89
2023/02/19 02:56:34;;;;;;;32.35;22.40;;;;;;;;;;4866882;29;20094;-88
2023/02/19 02:59:01;;;;;;;34.60;23.08;;;;;;;;;;4866196;29;20065;-89
2023/02/19 03:10:35;;;;;;;32.90;22.88;;;;;;;;;;4924089;29;20358;-88
2023/02/19 03:21:22;;;;;;;36.78;23.13;;;;;;;;;;4924117;29;20096;-88
2023/02/19 03:26:36;;;;;;;31.52;21.10;;;;;;;;;;4924016;29;20096;-90
2023/02/19 03:31:48;;;;;;;33.33;22.27;;;;;;;;;;4923972;29;20068;-88
2023/02/19 03:34:17;;;;;;;30.15;21.92;;;;;;;;;;4923507;29;20028;-88
2023/02/19 03:36:50;;;;;;;30.30;21.52;;;;;;;;;;4923974;29;20055;-89
2023/02/19 03:39:19;;;;;;;34.67;22.17;;;;;;;;;;4923764;29;20032;-88
2023/02/19 03:41:48;;;;;;;30.83;21.00;;;;;;;;;;4924007;29;20051;-88
2023/02/19 03:44:31;;;;;;;32.78;22.38;;;;;;;;;;4906810;29;20040;-88
2023/02/19 03:46:57;;;;;;;;;;;;;;;;;;4924032;29;20051;-91
2023/02/19 03:49:34;;;;;;;39.33;24.27;;;;;;;;;;4923407;29;19978;-89
2023/02/19 03:52:08;;;;;;;45.58;26.40;;;;;;;;;;4923300;29;20028;-88
2023/02/19 03:54:45;;;;;;;41.85;24.95;;;;;;;;;;4923348;29;20035;-89
2023/02/19 03:57:24;;;;;;;40.53;25.95;;;;;;;;;;4923291;29;20069;-89
2023/02/19 04:00:04;;;;;;;35.42;22.85;;;;;;;;;;4923133;29;20063;-90
2023/02/19 04:02:38;;;;;;;33.85;22.05;;;;;;;;;;4923418;29;20095;-89
2023/02/19 04:05:04;;;;;;;32.35;21.75;;;;;;;;;;4906691;29;20032;-90
2023/02/19 04:07:35;;;;;;;34.40;21.83;;;;;;;;;;4923464;29;20028;-88
2023/02/19 04:10:01;;;;;;;32.55;22.27;;;;;;;;;;4906251;29;20367;-91
2023/02/19 04:12:28;;;;;;;30.83;21.05;;;;;;;;;;4922935;29;20067;-88
2023/02/19 04:14:59;;;;;;;29.98;21.90;;;;;;;;;;4923213;29;20034;-89
2023/02/19 04:17:29;;;;;;;28.98;21.50;;;;;;;;;;4922760;29;20023;-90
2023/02/19 04:19:56;;;;;;;31.15;22.70;;;;;;;;;;4922762;29;20032;-88
2023/02/19 04:22:22;;;;;;;43.08;24.13;;;;;;;;;;4923085;29;20028;-89
2023/02/19 04:24:50;;;;;;;84.90;33.60;;;;;;;;;;4923089;29;20036;-89
2023/02/19 04:27:16;;;;;;;45.58;26.40;;;;;;;;;;4922784;29;20055;-90
2023/02/19 04:29:42;;;;;;;34.25;20.80;;;;;;;;;;4922887;29;20036;-89
2023/02/19 04:32:12;;;;;;;27.02;18.30;;;;;;;;;;4922655;29;20028;-87
2023/02/19 04:34:38;;;;;;;25.85;18.33;;;;;;;;;;4922435;29;20040;-89
2023/02/19 04:37:04;;;;;;;30.40;19.67;;;;;;;;;;4922365;29;20441;-88
2023/02/19 04:39:30;;;;;;;31.70;19.63;;;;;;;;;;4905714;29;20035;-88
2023/02/19 04:41:56;;;;;;;33.30;20.33;;;;;;;;;;4922515;29;20052;-88
2023/02/19 04:44:22;;;;;;;39.45;22.27;;;;;;;;;;4922667;29;20034;-88
2023/02/19 04:46:48;;;;;;;43.90;23.42;;;;;;;;;;4922300;29;20410;-88
2023/02/19 04:49:14;;;;;;;41.42;24.27;;;;;;;;;;4922518;29;20028;-87
2023/02/19 04:51:41;;;;;;;35.22;21.98;;;;;;;;;;4922240;29;20024;-89
2023/02/19 04:54:07;;;;;;;40.30;24.48;;;;;;;;;;4922191;29;20072;-88
2023/02/19 04:56:33;;;;;;;36.10;23.38;;;;;;;;;;4922443;29;20028;-88
2023/02/19 04:58:59;;;;;;;30.58;20.50;;;;;;;;;;4922029;29;20326;-89
2023/02/19 05:01:26;;;;;;;29.15;19.52;;;;;;;;;;4921986;29;20056;-88
2023/02/19 05:03:52;;;;;;;31.40;21.67;;;;;;;;;;4922837;29;20108;-89
2023/02/19 05:06:18;;;;;;;32.22;21.73;;;;;;;;;;4922182;29;20292;-89
2023/02/19 05:08:44;;;;;;;34.28;22.10;;;;;;;;;;4922225;29;20028;-88
2023/02/19 05:11:11;;;;;;;31.30;22.17;;;;;;;;;;4922062;29;20318;-90
2023/02/19 05:13:38;;;;;;;27.55;18.95;;;;;;;;;;4921768;29;20024;-89
2023/02/19 05:16:09;;;;;;;25.63;18.38;;;;;;;;;;4921739;29;20032;-90
2023/02/19 05:18:35;;;;;;;28.77;19.10;;;;;;;;;;4921762;29;20036;-88
2023/02/19 05:21:01;;;;;;;28.67;19.88;;;;;;;;;;4888135;29;20044;-90
2023/02/19 05:23:27;;;;;;;28.30;19.30;;;;;;;;;;4903230;29;20115;-89
2023/02/19 05:25:53;;;;;;;30.30;19.33;;;;;;;;;;4902799;29;20036;-89
2023/02/19 05:28:20;;;;;;;28.17;19.75;;;;;;;;;;4902589;29;20116;-89
2023/02/19 05:30:48;;;;;;;30.42;20.38;;;;;;;;;;4902792;29;20416;-89
2023/02/19 05:33:14;;;;;;;27.70;19.70;;;;;;;;;;4902918;29;20112;-89
2023/02/19 05:35:44;;;;;;;28.52;18.65;;;;;;;;;;4902994;29;20376;-90
2023/02/19 05:38:10;;;;;;;26.80;17.77;;;;;;;;;;4903016;29;20032;-90
2023/02/19 05:40:37;;;;;;;43.97;32.10;;;;;;;;;;4902698;29;20446;-88
2023/02/19 05:43:03;;;;;;;43.30;28.63;;;;;;;;;;4902418;29;20495;-88
2023/02/19 05:45:30;;;;;;;30.73;21.63;;;;;;;;;;4902512;29;20123;-88
2023/02/19 05:47:56;;;;;;;32.15;20.52;;;;;;;;;;4902472;29;20040;-87
2023/02/19 05:53:44;;;;;;;35.13;23.67;;;;;;;;;;4902470;29;20088;-88
2023/02/19 05:56:34;;;;;;;44.80;24.90;;;;;;;;;;4902445;29;20020;-93
2023/02/19 05:59:02;;;;;;;49.40;27.73;;;;;;;;;;4827240;29;20459;-88
2023/02/19 06:01:29;;;;;;;34.55;23.25;;;;;;;;;;4827240;29;20062;-86
2023/02/19 06:03:56;;;;;;;31.00;22.60;;;;;;;;;;4827114;29;20038;-88
2023/02/19 06:12:29;;;;;;;30.35;21.38;;;;;;;;;;4827118;29;20104;-88
2023/02/19 06:14:55;;;;;;;43.67;27.40;;;;;;;;;;4826683;29;20026;-89
2023/02/19 06:17:21;;;;;;;47.63;28.35;;;;;;;;;;4827167;29;20054;-88
2023/02/19 06:19:47;;;;;;;43.88;26.90;;;;;;;;;;4826845;29;20038;-88
2023/02/19 06:22:14;;;;;;;43.72;26.10;;;;;;;;;;4826754;29;20133;-88
2023/02/19 06:24:40;;;;;;;33.33;23.05;;;;;;;;;;4828531;29;20350;-87
2023/02/19 06:27:06;;;;;;;29.58;20.67;;;;;;;;;;4830345;29;20074;-86
2023/02/19 06:29:33;;;;;;;32.38;20.92;;;;;;;;;;4830096;29;20067;-86
2023/02/19 06:31:59;;;;;;;54.42;32.25;;;;;;;;;;4830194;29;20063;-86
2023/02/19 06:34:25;;;;;;;51.15;29.67;;;;;;;;;;4830080;29;20026;-86
2023/02/19 06:36:51;;;;;;;43.45;26.95;;;;;;;;;;4895303;29;20035;-86
2023/02/19 06:39:18;;;;;;;44.45;27.15;;;;;;;;;;4889433;29;20327;-87
2023/02/19 06:41:44;;;;;;;44.53;26.95;;;;;;;;;;4905716;29;20056;-86
2023/02/19 06:44:10;;;;;;;40.10;25.63;;;;;;;;;;4905836;29;20028;-87
2023/02/19 06:46:36;;;;;;;40.22;26.10;;;;;;;;;;4888915;29;20037;-87
2023/02/19 06:49:03;;;;;;;51.40;29.13;;;;;;;;;;4905521;29;20069;-88
2023/02/19 06:54:46;;;;;;;35.63;22.27;;;;;;;;;;4905991;29;20474;-88
2023/02/19 06:57:12;;;;;;;37.80;22.83;;;;;;;;;;4905604;29;20048;-87
2023/02/19 06:59:38;;;;;;;33.17;21.55;;;;;;;;;;4905697;29;20308;-88
2023/02/19 07:02:04;;;;;;;33.50;22.58;;;;;;;;;;4905118;29;20411;-88
2023/02/19 07:04:30;;;;;;;50.45;27.08;;;;;;;;;;4915408;29;20096;-87
2023/02/19 07:06:56;;;;;;;45.47;28.23;;;;;;;;;;4907111;29;20028;-87
2023/02/19 07:09:24;;;;;;;50.97;32.25;;;;;;;;;;4906987;29;20028;-87
2023/02/19 07:11:50;;;;;;;50.55;30.48;;;;;;;;;;4924387;29;20035;-87
2023/02/19 07:14:16;;;;;;;39.40;24.05;;;;;;;;;;4924165;29;20407;-88
2023/02/19 07:16:43;;;;;;;73.60;41.45;;;;;;;;;;4924308;29;20024;-87
2023/02/19 07:19:10;;;;;;;73.57;42.58;;;;;;;;;;4919025;29;20033;-89
2023/02/19 07:21:36;;;;;;;61.30;35.28;;;;;;;;;;4904994;29;20024;-88
2023/02/19 07:24:03;;;;;;;50.75;31.33;;;;;;;;;;4905274;29;20047;-89
2023/02/19 07:26:29;;;;;;;66.25;35.97;;;;;;;;;;4888417;29;20028;-88
2023/02/19 07:28:55;;;;;;;48.67;27.60;;;;;;;;;;4888130;29;20056;-87
2023/02/19 07:31:23;;;;;;;36.97;22.40;;;;;;;;;;4888516;29;20325;-87
2023/02/19 07:33:49;;;;;;;43.53;24.00;;;;;;;;;;4905122;29;20025;-87
2023/02/19 07:36:16;;;;;;;40.97;24.75;;;;;;;;;;4904653;29;20027;-86
2023/02/19 07:38:42;;;;;;;36.53;22.45;;;;;;;;;;4904973;29;20028;-87
2023/02/19 07:41:08;;;;;;;32.78;20.27;;;;;;;;;;4887735;29;20044;-87
2023/02/19 07:43:35;;;;;;;35.10;20.90;;;;;;;;;;4887928;29;20053;-87
2023/02/19 07:46:03;;;;;;;39.08;21.80;;;;;;;;;;4904610;29;20069;-87
2023/02/19 07:48:29;;;;;;;28.77;18.08;;;;;;;;;;4921570;29;20024;-88
2023/02/19 07:51:17;;;;;;;31.83;19.40;;;;;;;;;;4923363;29;20040;-88
2023/02/19 07:53:44;;;;;;;28.73;18.95;;;;;;;;;;4905758;29;20029;-87
2023/02/19 07:56:10;;;;;;;26.20;19.20;;;;;;;;;;4923382;29;20031;-87
2023/02/19 07:58:36;;;;;;;28.05;19.17;;;;;;;;;;4923158;29;20035;-88
2023/02/19 08:01:06;;;;;;;23.48;16.58;;;;;;;;;;4923120;29;20064;-89
2023/02/19 08:03:33;;;;;;;29.20;17.20;;;;;;;;;;4906505;29;20035;-88
2023/02/19 08:06:36;;;;;;;25.25;15.73;;;;;;;;;;4923328;29;20125;-87
2023/02/19 08:09:03;;;;;;;23.40;15.00;;;;;;;;;;4906727;29;20031;-89
2023/02/19 08:14:14;;;;;;;23.35;14.70;;;;;;;;;;4913117;29;20040;-88
2023/02/19 08:16:47;;;;;;;24.05;15.50;;;;;;;;;;4904371;29;20076;-88
2023/02/19 08:19:13;;;;;;;23.92;14.35;;;;;;;;;;4900900;29;20103;-90
2023/02/19 08:25:16;;;;;;;21.08;14.57;;;;;;;;;;4918696;29;20108;-90
2023/02/19 08:27:43;;;;;;;17.40;13.07;;;;;;;;;;4922588;29;20036;-89
2023/02/19 08:30:09;;;;;;;20.63;13.35;;;;;;;;;;4905730;29;20494;-89
2023/02/19 08:32:35;;;;;;;18.50;12.82;;;;;;;;;;4906056;29;20030;-88
2023/02/19 08:35:01;;;;;;;21.42;13.48;;;;;;;;;;4913560;29;20033;-92
2023/02/19 08:43:35;;;;;;;20.52;13.93;;;;;;;;;;4915170;29;20473;-88
2023/02/19 08:46:01;;;;;;;22.00;13.57;;;;;;;;;;4922361;29;20024;-88
2023/02/19 08:48:28;;;;;;;23.33;14.27;;;;;;;;;;4921925;29;20030;-87
2023/02/19 08:50:55;;;;;;;24.98;14.50;;;;;;;;;;4922465;29;20510;-86
2023/02/19 08:53:22;;;;;;;19.67;12.45;;;;;;;;;;4922104;29;20111;-87
2023/02/19 08:55:49;;;;;;;18.60;12.32;;;;;;;;;;4922394;29;20028;-87
2023/02/19 08:58:15;;;;;;;25.77;14.60;;;;;;;;;;4905494;29;20120;-86
2023/02/19 09:00:41;;;;;;;25.60;15.15;;;;;;;;;;4922223;29;20040;-86
2023/02/19 09:03:07;;;;;;;25.17;14.82;;;;;;;;;;4921933;29;20024;-87
2023/02/19 09:05:33;;;;;;;33.13;16.23;;;;;;;;;;4922282;29;20036;-87
2023/02/19 09:11:05;;;;;;;34.13;18.23;;;;;;;;;;4921937;29;20046;-88
2023/02/19 09:13:32;;;;;;;36.83;19.65;;;;;;;;;;4922035;29;20079;-87
2023/02/19 09:15:58;;;;;;;33.22;19.65;;;;;;;;;;4922008;29;20062;-87
2023/02/19 09:18:24;;;;;;;25.13;16.55;;;;;;;;;;4921990;29;20032;-87
2023/02/19 09:24:08;;;;;;;28.38;19.17;;;;;;;;;;4921843;29;20043;-87
2023/02/19 09:26:34;;;;;;;24.38;17.10;;;;;;;;;;4921774;29;20048;-87
2023/02/19 09:29:00;;;;;;;32.72;20.00;;;;;;;;;;4921880;29;20056;-88
2023/02/19 09:31:26;;;;;;;31.90;20.05;;;;;;;;;;4921586;29;20020;-87
2023/02/19 09:33:52;;;;;;;23.35;16.35;;;;;;;;;;4921525;29;20062;-87
2023/02/19 09:36:55;;;;;;;22.15;15.73;;;;;;;;;;4921436;29;20032;-87
2023/02/19 09:39:21;;;;;;;19.27;14.23;;;;;;;;;;4904913;29;20038;-88
2023/02/19 09:41:49;;;;;;;23.30;15.57;;;;;;;;;;4921575;29;20052;-87
2023/02/19 09:44:28;;;;;;;33.38;20.35;;;;;;;;;;4904811;29;20036;-88
2023/02/19 09:46:55;;;;;;;38.97;24.60;;;;;;;;;;4921488;29;20411;-86
2023/02/19 09:49:21;;;;;;;23.10;16.52;;;;;;;;;;4921070;29;20032;-87
2023/02/19 09:55:23;;;;;;;36.60;21.92;;;;;;;;;;4921593;29;20083;-86
2023/02/19 09:57:50;;;;;;;35.65;19.38;;;;;;;;;;4904490;29;20080;-86
2023/02/19 10:00:27;;;;;;;48.97;21.17;;;;;;;;;;4904747;29;20048;-86
2023/02/19 10:03:14;;;;;;;52.10;27.02;;;;;;;;;;4904666;29;20397;-86
2023/02/19 10:05:40;;;;;;;86.65;59.70;;;;;;;;;;4921488;29;20071;-86
2023/02/19 10:11:11;;;;;;;20.30;13.55;;;;;;;;;;4920694;29;20075;-87
2023/02/19 10:13:41;;;;;;;24.30;15.63;;;;;;;;;;4886772;29;20029;-86
2023/02/19 10:16:10;;;;;;;39.10;13.98;;;;;;;;;;4912069;29;20333;-87
2023/02/19 10:18:42;;;;;;;22.33;15.00;;;;;;;;;;4887972;29;20032;-89
2023/02/19 10:21:11;;;;;;;26.58;15.27;;;;;;;;;;4885995;29;20502;-87
2023/02/19 10:23:39;;;;;;;22.50;15.68;;;;;;;;;;4921311;29;20355;-87
2023/02/19 10:26:05;;;;;;;25.85;16.73;;;;;;;;;;4915532;29;20124;-86
2023/02/19 10:28:33;;;;;;;22.23;15.48;;;;;;;;;;4898154;29;20415;-86
2023/02/19 10:31:00;;;;;;;23.83;15.13;;;;;;;;;;4896036;29;20041;-86
2023/02/19 10:33:26;;;;;;;22.52;14.52;;;;;;;;;;4887456;29;20037;-87
2023/02/19 10:38:56;;;;;;;18.30;12.88;;;;;;;;;;4921171;29;20068;-87
2023/02/19 10:41:24;;;;;;;18.52;12.60;;;;;;;;;;4897003;29;20028;-86
2023/02/19 10:43:59;;;;;;;23.10;14.13;;;;;;;;;;4921064;29;20051;-86
2023/02/19 10:46:27;;;;;;;21.05;14.80;;;;;;;;;;4904122;29;20044;-87
2023/02/19 10:48:57;;;;;;;23.33;15.63;;;;;;;;;;4904423;29;20120;-87
2023/02/19 10:51:37;;;;;;;23.85;14.60;;;;;;;;;;4921126;29;20075;-87
2023/02/19 10:54:04;;;;;;;17.83;12.93;;;;;;;;;;4903485;29;20040;-86
2023/02/19 10:56:32;;;;;;;18.63;13.77;;;;;;;;;;4904087;29;20032;-87
2023/02/19 10:59:13;;;;;;;24.67;16.17;;;;;;;;;;4902260;29;20415;-86
2023/02/19 11:01:53;;;;;;;25.97;16.70;;;;;;;;;;4899066;29;20335;-85
2023/02/19 11:04:19;;;;;;;22.23;15.60;;;;;;;;;;4903206;29;20267;-85
2023/02/19 11:06:46;;;;;;;21.35;13.73;;;;;;;;;;4904167;29;20047;-85
2023/02/19 11:09:26;;;;;;;16.52;12.73;;;;;;;;;;4915435;29;20145;-85
2023/02/19 11:11:53;;;;;;;21.30;15.38;;;;;;;;;;4909660;29;20032;-86
2023/02/19 11:14:22;;;;;;;23.70;15.63;;;;;;;;;;4888238;29;20033;-79
2023/02/19 11:16:58;;;;;;;43.72;23.63;;;;;;;;;;4910685;29;20038;-85
2023/02/19 11:19:25;;;;;;;36.60;20.83;;;;;;;;;;4920219;29;20024;-80
2023/02/19 11:21:51;;;;;;;32.38;18.67;;;;;;;;;;4916021;29;20029;-80
2023/02/19 11:24:26;;;;;;;24.83;16.23;;;;;;;;;;4904770;29;20346;-81
2023/02/19 11:26:52;;;;;;;24.95;15.70;;;;;;;;;;4919215;29;20036;-77
2023/02/19 11:29:23;;;;;;;28.48;18.08;;;;;;;;;;4913126;29;20043;-77
2023/02/19 11:31:49;;;;;;;21.88;14.57;;;;;;;;;;4917608;29;20354;-79
2023/02/19 11:34:24;;;;;;;25.55;17.00;;;;;;;;;;4921342;29;20025;-79
2023/02/19 11:37:07;;;;;;;24.85;15.88;;;;;;;;;;4906426;29;20028;-79
2023/02/19 11:39:33;;;;;;;33.47;20.13;;;;;;;;;;4922219;29;20028;-79
2023/02/19 11:42:14;;;;;;;31.20;16.15;;;;;;;;;;4914643;29;20076;-80
2023/02/19 11:44:43;;;;;;;19.38;12.60;;;;;;;;;;4902675;29;20119;-79
2023/02/19 11:47:22;;;;;;;25.45;15.95;;;;;;;;;;4923081;29;20054;-79
2023/02/19 11:50:02;;;;;;;24.23;14.85;;;;;;;;;;4906098;29;20028;-79
2023/02/19 11:52:32;;;;;;;22.70;14.80;;;;;;;;;;4922769;29;20031;-79
2023/02/19 11:55:14;;;;;;;17.27;13.57;;;;;;;;;;4921401;29;20044;-79
2023/02/19 11:57:47;;;;;;;19.55;13.85;;;;;;;;;;4922634;29;20032;-79
2023/02/19 12:00:29;;;;;;;22.10;14.65;;;;;;;;;;4922980;29;20052;-90
2023/02/19 12:03:11;;;;;;;24.67;15.32;;;;;;;;;;4923339;29;20438;-91
2023/02/19 12:06:00;;;;;;;24.45;15.57;;;;;;;;;;4906516;29;20178;-89
2023/02/19 12:08:26;;;;;;;22.65;15.02;;;;;;;;;;4923361;29;20335;-90
2023/02/19 12:11:01;;;;;;;21.30;14.57;;;;;;;;;;4905841;29;20043;-91
2023/02/19 12:13:42;;;;;;;20.08;14.38;;;;;;;;;;4906257;29;20039;-89
2023/02/19 12:16:16;;;;;;;23.67;15.97;;;;;;;;;;4906263;29;20032;-88
2023/02/19 12:18:51;;;;;;;24.38;15.88;;;;;;;;;;4906865;29;20064;-90
2023/02/19 12:27:45;;;;;;;24.05;14.27;;;;;;;;;;4921173;29;20095;-87
2023/02/19 12:30:31;;;;;;;23.25;14.73;;;;;;;;;;4917794;29;20091;-87
2023/02/19 12:32:58;;;;;;;24.58;16.90;;;;;;;;;;4856729;29;20069;-87
2023/02/19 12:35:24;;;;;;;23.55;14.88;;;;;;;;;;4860257;29;20041;-88
2023/02/19 12:40:59;;;;;;;20.15;13.50;;;;;;;;;;4859866;29;20056;-88
2023/02/19 12:43:25;;;;;;;23.88;13.18;;;;;;;;;;4867443;29;20053;-87
2023/02/19 12:45:54;;;;;;;24.75;13.70;;;;;;;;;;4869602;29;20030;-88
2023/02/19 12:48:43;;;;;;;22.30;13.30;;;;;;;;;;4849923;29;20030;-88
2023/02/19 12:51:11;;;;;;;23.83;13.48;;;;;;;;;;4855722;29;20045;-87
2023/02/19 12:53:56;;;;;;;20.27;11.63;;;;;;;;;;4864214;29;20029;-87
2023/02/19 12:56:25;;;;;;;26.08;13.00;;;;;;;;;;4864516;29;20124;-88
2023/02/19 12:59:01;;;;;;;25.42;12.57;;;;;;;;;;4864390;29;20041;-88
2023/02/19 13:01:32;;;;;;;20.52;12.85;;;;;;;;;;4864390;29;20120;-88
2023/02/19 13:04:24;;;;;;;16.70;11.70;;;;;;;;;;4864392;29;20040;-89
2023/02/19 13:10:00;;;;;;;23.70;12.52;;;;;;;;;;4876980;29;20040;-88
2023/02/19 13:12:29;;;;;;;20.15;12.38;;;;;;;;;;4905258;29;20044;-88
2023/02/19 13:15:00;;;;;;;24.33;14.40;;;;;;;;;;4922088;29;20103;-89
2023/02/19 13:17:59;;;;;;;31.23;16.35;;;;;;;;;;4922026;29;20024;-89
2023/02/19 13:20:29;;;;;;;23.15;12.57;;;;;;;;;;4812294;29;20064;-88
2023/02/19 13:25:58;;;;;;;21.08;14.40;;;;;;;;;;4812524;29;20076;-83
2023/02/19 13:28:44;;;;;;;42.30;19.85;;;;;;;;;;4808840;29;20081;-87
2023/02/19 13:31:20;;;;;;;21.83;14.20;;;;;;;;;;4808784;29;20046;-89
2023/02/19 13:34:05;;;;;;;17.20;12.40;;;;;;;;;;4808928;29;20083;-89
2023/02/19 13:36:31;;;;;;;19.83;13.73;;;;;;;;;;4808950;29;20042;-88
2023/02/19 13:42:01;;;;;;;18.67;12.07;;;;;;;;;;4808996;29;20172;-88
2023/02/19 13:44:28;;;;;;;15.60;11.70;;;;;;;;;;4808045;29;20443;-87
2023/02/19 13:46:54;;;;;;;17.30;11.15;;;;;;;;;;4808520;29;20043;-87
2023/02/19 13:49:30;;;;;;;20.63;12.45;;;;;;;;;;4815757;29;20045;-88
2023/02/19 13:52:32;;;;;;;22.85;13.43;;;;;;;;;;4807667;29;20370;-83
2023/02/19 13:55:17;;;;;;;14.07;9.95;;;;;;;;;;4793671;29;20030;-83
2023/02/19 13:57:43;;;;;;;18.33;10.50;;;;;;;;;;4860830;29;20427;-84
2023/02/19 14:00:30;;;;;;;30.15;15.13;;;;;;;;;;4861112;29;20439;-84
2023/02/19 14:03:16;;;;;;;19.48;11.35;;;;;;;;;;4833018;29;20062;-83
2023/02/19 14:06:01;;;;;;;22.63;11.52;;;;;;;;;;4788705;30;20126;-86
2023/02/19 14:11:44;;;;;;;24.55;15.27;;;;;;;;;;4790832;30;20091;-87
2023/02/19 14:14:22;;;;;;;23.15;13.88;;;;;;;;;;4790294;30;20039;-86
2023/02/19 14:16:50;;;;;;;25.45;13.70;;;;;;;;;;4804837;29;20119;-85
2023/02/19 14:19:36;;;;;;;18.85;12.95;;;;;;;;;;4790527;30;20474;-87
2023/02/19 14:22:22;;;;;;;18.90;10.88;;;;;;;;;;4805043;29;20122;-86
2023/02/19 14:24:48;;;;;;;13.93;10.77;;;;;;;;;;4782591;30;20427;-87
2023/02/19 14:27:15;;;;;;;18.27;12.73;;;;;;;;;;4757515;30;20048;-86
2023/02/19 14:29:41;;;;;;;14.77;10.65;;;;;;;;;;4772337;30;20134;-87
2023/02/19 14:32:10;;;;;;;12.43;9.45;;;;;;;;;;4791642;29;20122;-88
2023/02/19 14:34:36;;;;;;;13.38;9.57;;;;;;;;;;4795418;29;20039;-88
2023/02/19 14:37:05;;;;;;;13.20;9.05;;;;;;;;;;4808818;29;20051;-88
2023/02/19 14:40:04;;;;;;;12.57;8.88;;;;;;;;;;4811345;29;20039;-87
2023/02/19 14:42:32;;;;;;;14.95;10.35;;;;;;;;;;4855757;29;20075;-88
2023/02/19 14:45:05;;;;;;;19.85;9.75;;;;;;;;;;4902600;29;20032;-87
2023/02/19 14:47:33;;;;;;;14.02;9.45;;;;;;;;;;4905622;29;20124;-87
2023/02/19 14:50:02;;;;;;;14.00;10.15;;;;;;;;;;4889161;29;20040;-87
2023/02/19 14:52:35;;;;;;;12.43;9.20;;;;;;;;;;4889091;29;20092;-86
2023/02/19 14:55:13;;;;;;;12.35;8.88;;;;;;;;;;4912379;29;20470;-87
2023/02/19 14:57:40;;;;;;;11.10;9.00;;;;;;;;;;4924288;29;20478;-89
2023/02/19 15:00:36;;;;;;;12.63;8.75;;;;;;;;;;4924410;29;20079;-89
2023/02/19 15:03:03;;;;;;;12.88;9.48;;;;;;;;;;4884971;29;20045;-90
2023/02/19 15:05:31;;;;;;;12.50;9.43;;;;;;;;;;4884526;29;20048;-89
2023/02/19 15:07:58;;;;;;;12.25;9.23;;;;;;;;;;4884842;29;20048;-89
2023/02/19 15:10:26;;;;;;;15.05;9.45;;;;;;;;;;4885201;29;20033;-89
2023/02/19 15:12:53;;;;;;;14.95;10.93;;;;;;;;;;4885184;29;20353;-90
2023/02/19 15:15:24;;;;;;;17.70;11.00;;;;;;;;;;4884770;29;20112;-89
2023/02/19 15:17:50;;;;;;;15.70;11.50;;;;;;;;;;4884860;29;20112;-88
2023/02/19 15:20:18;;;;;;;16.80;11.10;;;;;;;;;;4884487;29;20561;-88
2023/02/19 15:22:45;;;;;;;21.45;15.10;;;;;;;;;;4885090;29;20056;-88
2023/02/19 15:25:21;;;;;;;24.50;15.00;;;;;;;;;;4884992;29;20029;-89
2023/02/19 15:27:48;;;;;;;20.80;14.27;;;;;;;;;;4884256;29;20089;-87
2023/02/19 15:30:26;;;;;;;18.95;13.07;;;;;;;;;;4884760;29;20041;-88
2023/02/19 15:32:53;;;;;;;19.35;14.50;;;;;;;;;;4884158;29;20120;-88
2023/02/19 15:35:21;;;;;;;20.65;15.38;;;;;;;;;;4884464;29;20037;-86
2023/02/19 15:37:47;;;;;;;32.35;19.92;;;;;;;;;;4883971;29;20035;-85
2023/02/19 15:40:14;;;;;;;32.88;20.25;;;;;;;;;;4917790;29;20433;-86
2023/02/19 15:42:43;;;;;;;24.33;17.35;;;;;;;;;;4921736;29;20131;-85
2023/02/19 15:45:27;;;;;;;16.80;13.30;;;;;;;;;;4923147;29;20122;-86
2023/02/19 15:48:09;;;;;;;18.95;13.07;;;;;;;;;;4906857;29;20036;-87
2023/02/19 15:50:36;;;;;;;16.67;12.90;;;;;;;;;;4923332;29;20068;-86
2023/02/19 15:53:08;;;;;;;23.08;15.70;;;;;;;;;;4920860;29;20099;-87
2023/02/19 15:55:38;;;;;;;24.52;16.17;;;;;;;;;;4923369;29;20035;-85
2023/02/19 15:58:09;;;;;;;32.58;20.00;;;;;;;;;;4915574;29;20334;-85
2023/02/19 16:00:41;;;;;;;24.48;16.40;;;;;;;;;;4904460;29;20032;-85
2023/02/19 16:03:07;;;;;;;;;;;;;;;;;;4888396;29;20033;-87
2023/02/19 16:05:38;;;;;;;24.50;16.08;;;;;;;;;;4918686;29;19907;-90
2023/02/19 16:11:25;;;;;;;29.10;20.90;;;;;;;;;;4904056;29;20383;-90
2023/02/19 16:13:51;;;;;;;24.60;17.55;;;;;;;;;;4904201;29;20032;-89
2023/02/19 16:16:28;;;;;;;23.00;16.15;;;;;;;;;;4904009;29;20041;-89
2023/02/19 16:18:54;;;;;;;22.15;15.60;;;;;;;;;;4904083;29;20419;-89
2023/02/19 16:21:22;;;;;;;24.13;15.25;;;;;;;;;;4903829;29;20430;-90
2023/02/19 16:23:49;;;;;;;21.80;14.63;;;;;;;;;;4903711;29;20048;-90
2023/02/19 16:26:16;;;;;;;22.67;14.60;;;;;;;;;;4904269;29;20025;-91
2023/02/19 16:28:42;;;;;;;38.17;25.30;;;;;;;;;;4904110;29;20277;-91
2023/02/19 16:31:09;;;;;;;60.15;33.45;;;;;;;;;;4887562;29;20373;-91